Time;durP1;ratioP1;P1;durP2;ratioP2;P2;SDS_P1;SDS_P2;PMS_P1;PMS_P2;Temp;Humidity;BMP_temperature;BMP_pressure;BME280_temperature;BME280_humidity;BME280_pressure;Samples;Min_cycle;Max_cycle;Signal;HPM_P1;HPM_P2
2023/10/21 00:02:12;;;;;;;;;0.00;0.00;;;;;13.73;82.25;96814.50;5115082;28;8846;-58
2023/10/21 00:04:39;;;;;;;;;0.75;0.00;;;;;13.72;82.25;96811.00;5115626;28;8840;-57
2023/10/21 00:07:07;;;;;;;;;0.00;0.00;;;;;13.73;81.80;96809.16;5115521;28;8908;-57
2023/10/21 00:09:35;;;;;;;;;0.00;0.00;;;;;13.71;82.03;96808.53;5114819;28;8861;-58
2023/10/21 00:12:03;;;;;;;;;0.00;0.00;;;;;13.68;82.06;96807.09;5093651;28;8837;-58
2023/10/21 00:14:30;;;;;;;;;0.25;0.25;;;;;13.64;82.47;96813.09;5094440;28;8933;-58
2023/10/21 00:16:58;;;;;;;;;0.00;0.00;;;;;13.60;82.18;96814.59;5094487;28;8841;-58
2023/10/21 00:19:26;;;;;;;;;0.25;0.00;;;;;13.55;82.44;96811.75;5093931;28;8842;-58
2023/10/21 00:21:54;;;;;;;;;0.00;0.00;;;;;13.54;82.17;96818.13;5094179;28;8850;-58
2023/10/21 00:24:21;;;;;;;;;0.00;0.00;;;;;13.53;82.31;96822.66;5094976;28;8818;-57
2023/10/21 00:26:49;;;;;;;;;0.00;0.00;;;;;13.53;82.74;96817.28;5094073;28;8842;-58
2023/10/21 00:29:17;;;;;;;;;0.75;0.50;;;;;13.52;83.21;96821.00;5094101;28;8822;-58
2023/10/21 00:31:44;;;;;;;;;1.00;1.00;;;;;13.52;82.23;96826.34;5094021;28;8861;-58
2023/10/21 00:34:12;;;;;;;;;0.00;0.00;;;;;13.53;83.01;96827.19;5093888;28;8825;-58
2023/10/21 00:36:40;;;;;;;;;0.25;0.25;;;;;13.52;82.13;96825.56;5094086;28;8849;-57
2023/10/21 00:39:10;;;;;;;;;0.00;0.00;;;;;13.47;82.56;96830.72;5094400;28;8814;-58
2023/10/21 00:41:38;;;;;;;;;0.00;0.00;;;;;13.44;82.89;96831.97;5093751;28;9805;-58
2023/10/21 00:44:06;;;;;;;;;0.00;0.00;;;;;13.41;82.34;96842.28;5094544;28;8850;-58
2023/10/21 00:46:34;;;;;;;;;0.50;0.50;;;;;13.39;82.46;96839.00;5093566;28;8848;-58
2023/10/21 00:49:03;;;;;;;;;0.50;0.50;;;;;13.37;82.22;96843.75;5094539;28;8903;-58
2023/10/21 00:51:30;;;;;;;;;0.00;0.00;;;;;13.35;82.75;96846.63;5094236;28;8886;-57
2023/10/21 00:53:58;;;;;;;;;1.00;1.00;;;;;13.33;83.18;96843.38;5094661;28;8830;-58
2023/10/21 00:56:26;;;;;;;;;0.00;0.00;;;;;13.33;83.00;96842.53;5093914;28;8822;-58
2023/10/21 00:58:54;;;;;;;;;1.00;1.00;;;;;13.32;82.40;96848.91;5095112;28;8861;-58
2023/10/21 01:01:22;;;;;;;;;0.00;0.00;;;;;13.32;82.27;96846.25;5094735;28;8814;-58
2023/10/21 01:03:50;;;;;;;;;0.00;0.00;;;;;13.31;82.44;96848.13;5098652;28;8826;-59
2023/10/21 01:06:18;;;;;;;;;0.00;0.00;;;;;13.32;82.40;96846.25;5098896;28;9564;-58
2023/10/21 01:08:45;;;;;;;;;1.00;1.00;;;;;13.33;82.21;96842.53;5099001;28;8842;-58
2023/10/21 01:11:13;;;;;;;;;0.00;0.00;;;;;13.33;82.16;96846.03;5111518;28;8867;-58
2023/10/21 01:13:43;;;;;;;;;1.00;1.00;;;;;13.34;83.04;96846.84;5118625;28;8820;-59
2023/10/21 01:16:10;;;;;;;;;0.75;0.75;;;;;13.37;82.90;96849.09;5118777;28;8839;-59
2023/10/21 01:18:38;;;;;;;;;0.00;0.00;;;;;13.37;82.16;96846.44;5118185;28;8946;-58
2023/10/21 01:21:06;;;;;;;;;0.00;0.00;;;;;13.38;82.48;96856.06;5118312;28;8828;-58
2023/10/21 01:23:35;;;;;;;;;0.00;0.00;;;;;13.41;81.97;96853.78;5118475;28;8835;-58
2023/10/21 01:26:03;;;;;;;;;0.00;0.00;;;;;13.44;82.03;96857.91;5117867;28;8823;-58
2023/10/21 01:28:30;;;;;;;;;1.00;1.00;;;;;13.49;82.29;96860.72;5118062;28;8827;-58
2023/10/21 01:30:58;;;;;;;;;0.00;0.00;;;;;13.55;82.13;96857.19;5118104;28;8839;-58
2023/10/21 01:33:25;;;;;;;;;0.00;0.00;;;;;13.63;81.94;96859.59;5117887;28;8862;-58
2023/10/21 01:35:53;;;;;;;;;0.00;0.00;;;;;13.70;81.80;96865.72;5117604;28;8852;-60
2023/10/21 01:38:21;;;;;;;;;0.50;0.50;;;;;13.75;81.81;96864.03;5118322;28;8827;-58
2023/10/21 01:40:49;;;;;;;;;0.00;0.00;;;;;13.80;81.39;96861.53;5117503;28;9856;-58
2023/10/21 01:43:17;;;;;;;;;0.00;0.00;;;;;13.84;81.26;96861.94;5117927;28;8827;-58
2023/10/21 01:45:44;;;;;;;;;0.00;0.00;;;;;13.90;81.52;96869.09;5118359;28;8816;-58
2023/10/21 01:48:13;;;;;;;;;1.00;1.00;;;;;13.93;81.00;96869.47;5117823;28;9600;-58
2023/10/21 01:50:41;;;;;;;;;0.50;0.50;;;;;13.95;81.05;96882.59;5117906;28;8934;-58
2023/10/21 01:53:09;;;;;;;;;0.50;0.00;;;;;14.00;81.02;96872.09;5117689;28;8820;-58
2023/10/21 01:55:36;;;;;;;;;0.00;0.00;;;;;14.03;81.20;96879.69;5118238;28;8820;-58
2023/10/21 01:58:04;;;;;;;;;1.00;1.00;;;;;14.04;81.29;96879.44;5117690;28;8812;-57
2023/10/21 02:00:32;;;;;;;;;0.50;0.50;;;;;14.06;81.28;96887.28;5118037;28;8816;-58
2023/10/21 02:03:00;;;;;;;;;0.00;0.00;;;;;14.06;81.29;96881.91;5117422;28;8851;-58
2023/10/21 02:05:27;;;;;;;;;0.00;0.00;;;;;14.04;80.95;96884.81;5117672;28;8847;-57
2023/10/21 02:07:55;;;;;;;;;0.00;0.00;;;;;14.01;81.32;96882.56;5117583;28;8820;-58
2023/10/21 02:10:23;;;;;;;;;4.25;1.50;;;;;14.00;81.27;96888.13;5117544;28;8839;-58
2023/10/21 02:12:51;;;;;;;;;0.20;0.20;;;;;13.97;81.21;96889.38;5116528;28;8878;-58
2023/10/21 02:15:18;;;;;;;;;0.00;0.00;;;;;13.96;81.71;96894.97;5117254;28;8846;-58
2023/10/21 02:17:46;;;;;;;;;0.25;0.25;;;;;13.94;81.67;96895.19;5117491;28;8831;-57
2023/10/21 02:20:14;;;;;;;;;0.75;0.75;;;;;13.93;81.43;96895.38;5117701;28;8836;-58
2023/10/21 02:22:42;;;;;;;;;0.00;0.00;;;;;13.92;81.41;96904.44;5117494;28;8842;-58
2023/10/21 02:25:11;;;;;;;;;0.50;0.50;;;;;13.92;81.82;96901.78;5117613;28;8832;-58
2023/10/21 02:27:41;;;;;;;;;0.20;0.20;;;;;13.90;81.57;96902.00;5117071;28;8816;-58
2023/10/21 02:30:09;;;;;;;;;0.00;0.00;;;;;13.90;82.22;96910.00;5116939;28;8812;-57
2023/10/21 02:32:37;;;;;;;;;1.00;1.00;;;;;13.90;81.93;96909.22;5117655;28;8828;-58
2023/10/21 02:35:05;;;;;;;;;1.00;1.00;;;;;13.87;82.13;96906.94;5117231;28;8909;-57
2023/10/21 02:37:33;;;;;;;;;0.00;0.00;;;;;13.88;81.88;96911.28;5117585;28;8828;-60
2023/10/21 02:40:00;;;;;;;;;0.00;0.00;;;;;13.88;81.97;96917.44;5116901;28;8846;-58
2023/10/21 02:42:28;;;;;;;;;0.75;0.75;;;;;13.87;81.77;96913.13;5116937;28;8824;-57
2023/10/21 02:44:57;;;;;;;;;0.75;0.75;;;;;13.88;82.37;96916.63;5116513;28;8859;-57
2023/10/21 02:47:25;;;;;;;;;0.50;0.50;;;;;13.87;81.57;96917.66;5116738;28;8834;-58
2023/10/21 02:49:52;;;;;;;;;0.50;0.50;;;;;13.87;81.69;96926.50;5116958;28;8823;-57
2023/10/21 02:52:20;;;;;;;;;0.00;0.00;;;;;13.87;81.60;96931.03;5116845;28;8823;-60
2023/10/21 02:54:48;;;;;;;;;1.00;1.00;;;;;13.87;81.47;96931.03;5116887;28;8873;-58
2023/10/21 02:57:15;;;;;;;;;0.00;0.00;;;;;13.86;81.50;96930.22;5116574;28;8824;-60
2023/10/21 02:59:43;;;;;;;;;0.25;0.25;;;;;13.88;81.71;96938.03;5116451;28;8824;-58
2023/10/21 03:02:13;;;;;;;;;1.00;0.00;;;;;13.86;81.57;96940.09;5116675;28;8824;-57
2023/10/21 03:04:40;;;;;;;;;1.00;0.50;;;;;13.87;81.86;96941.72;5116335;28;8938;-59
2023/10/21 03:07:09;;;;;;;;;1.00;1.00;;;;;13.86;81.69;96948.94;5116269;28;8843;-58
2023/10/21 03:09:36;;;;;;;;;0.80;0.80;;;;;13.87;81.93;96949.75;5116645;28;8816;-58
2023/10/21 03:12:04;;;;;;;;;1.00;1.00;;;;;13.87;82.17;96955.09;5095768;28;8888;-57
2023/10/21 03:14:32;;;;;;;;;1.00;1.00;;;;;13.86;82.10;96962.31;5095614;28;8803;-59
2023/10/21 03:17:00;;;;;;;;;1.00;0.25;;;;;13.87;81.68;96961.28;5095978;28;8842;-59
2023/10/21 03:19:28;;;;;;;;;1.00;1.00;;;;;13.87;82.07;96960.44;5095735;28;8835;-58
2023/10/21 03:21:56;;;;;;;;;1.00;0.00;;;;;13.88;81.80;96964.78;5094750;28;8808;-58
2023/10/21 03:24:24;;;;;;;;;0.00;0.00;;;;;13.87;82.14;96966.63;5096355;28;8821;-57
2023/10/21 03:26:52;;;;;;;;;0.00;0.00;;;;;13.89;81.93;96971.78;5096308;28;8858;-59
2023/10/21 03:29:20;;;;;;;;;0.40;0.20;;;;;13.89;81.72;96977.13;5095647;28;8905;-58
2023/10/21 03:31:48;;;;;;;;;0.00;0.00;;;;;13.87;82.14;96979.19;5095911;28;8830;-59
2023/10/21 03:34:15;;;;;;;;;0.40;0.00;;;;;13.85;81.66;96979.41;5095901;28;9524;-60
2023/10/21 03:36:43;;;;;;;;;1.00;0.20;;;;;13.86;82.05;96986.41;5095122;28;8930;-59
2023/10/21 03:39:11;;;;;;;;;0.00;0.00;;;;;13.84;82.03;96996.50;5095096;28;8831;-59
2023/10/21 03:41:39;;;;;;;;;0.00;0.00;;;;;13.83;81.77;97002.06;5095395;28;9575;-57
2023/10/21 03:44:07;;;;;;;;;0.00;0.00;;;;;13.83;82.17;97004.72;5095366;28;8820;-59
2023/10/21 03:46:34;;;;;;;;;0.00;0.00;;;;;13.83;82.41;97002.84;5094866;28;8839;-58
2023/10/21 03:49:08;;;;;;;;;0.00;0.00;;;;;13.82;82.60;97017.28;5094170;28;8823;-59
2023/10/21 03:51:49;;;;;;;;;0.00;0.00;;;;;13.82;82.43;97013.78;5090353;28;8848;-58
2023/10/21 03:54:17;;;;;;;;;0.00;0.00;;;;;13.81;82.31;97018.31;5094379;28;8839;-58
2023/10/21 03:56:45;;;;;;;;;0.00;0.00;;;;;13.81;82.17;97033.56;5093971;28;8848;-60
2023/10/21 03:59:12;;;;;;;;;0.00;0.00;;;;;13.82;82.47;97038.66;5093950;28;9604;-57
2023/10/21 04:01:40;;;;;;;;;0.00;0.00;;;;;13.83;82.10;97048.34;5094088;28;8820;-57
2023/10/21 04:04:08;;;;;;;;;0.00;0.00;;;;;13.84;82.06;97049.16;5094716;28;8866;-58
2023/10/21 04:06:35;;;;;;;;;0.00;0.00;;;;;13.84;82.44;97062.53;5094664;28;8941;-57
2023/10/21 04:09:03;;;;;;;;;0.00;0.00;;;;;13.83;82.29;97067.06;5094742;28;8827;-57
2023/10/21 04:11:31;;;;;;;;;0.00;0.00;;;;;13.83;82.49;97075.09;5111040;28;8904;-59
2023/10/21 04:13:59;;;;;;;;;1.00;0.25;;;;;13.82;82.78;97080.66;5115076;28;8820;-57
2023/10/21 04:16:26;;;;;;;;;0.00;0.00;;;;;13.82;82.40;97080.66;5115161;28;8824;-57
2023/10/21 04:18:54;;;;;;;;;0.50;0.50;;;;;13.82;82.52;97086.00;5115262;28;8938;-58
2023/10/21 04:21:22;;;;;;;;;0.50;0.50;;;;;13.82;82.58;97094.03;5114730;28;8854;-59
2023/10/21 04:23:49;;;;;;;;;0.00;0.00;;;;;13.81;82.90;97103.91;5115172;28;8956;-57
2023/10/21 04:26:17;;;;;;;;;0.00;0.00;;;;;13.81;82.91;97103.09;5115520;28;8932;-59
2023/10/21 04:28:49;;;;;;;;;0.50;0.50;;;;;13.80;82.90;97112.97;5114738;28;8848;-58
2023/10/21 04:31:17;;;;;;;;;0.00;0.00;;;;;13.81;82.73;97113.81;5114683;28;8828;-58
2023/10/21 04:33:45;;;;;;;;;0.50;0.00;;;;;13.80;82.95;97123.66;5114977;28;8819;-59
2023/10/21 04:36:13;;;;;;;;;0.25;0.25;;;;;13.80;82.66;97130.84;5114066;28;8835;-58
2023/10/21 04:38:40;;;;;;;;;1.00;1.00;;;;;13.80;82.85;97142.38;5115158;28;8824;-59
2023/10/21 04:41:08;;;;;;;;;0.25;0.25;;;;;13.81;82.67;97146.69;5114407;28;8832;-60
2023/10/21 04:43:36;;;;;;;;;2.00;0.75;;;;;13.82;83.21;97153.69;5114971;28;8808;-57
2023/10/21 04:46:03;;;;;;;;;0.75;0.75;;;;;13.82;83.04;97160.91;5114763;28;8812;-58
2023/10/21 04:48:31;;;;;;;;;1.00;1.00;;;;;13.82;83.73;97161.72;5114844;28;9535;-59
2023/10/21 04:50:59;;;;;;;;;2.00;2.00;;;;;13.84;83.41;97180.25;5114392;28;8932;-60
2023/10/21 04:53:27;;;;;;;;;1.00;1.00;;;;;13.84;83.06;97172.22;5114643;28;9213;-58
2023/10/21 04:55:54;;;;;;;;;2.50;1.00;;;;;13.84;83.21;97177.56;5114288;28;9511;-59
2023/10/21 04:58:22;;;;;;;;;1.00;1.00;;;;;13.84;83.12;97190.94;5114047;28;8847;-59
2023/10/21 05:00:49;;;;;;;;;1.00;1.00;;;;;13.83;83.41;97190.09;5114309;28;8854;-57
2023/10/21 05:03:17;;;;;;;;;1.00;1.00;;;;;13.83;83.40;97190.09;5114197;28;8836;-58
2023/10/21 05:05:45;;;;;;;;;1.00;1.00;;;;;13.84;83.20;97193.63;5114303;28;8952;-59
2023/10/21 05:08:13;;;;;;;;;0.00;0.00;;;;;13.84;83.27;97204.31;5114508;28;8828;-58
2023/10/21 05:10:40;;;;;;;;;0.75;0.50;;;;;13.83;83.51;97218.72;5114587;28;8856;-56
2023/10/21 05:13:08;;;;;;;;;0.25;0.25;;;;;13.82;83.80;97217.09;5114503;28;8824;-59
2023/10/21 05:15:38;;;;;;;;;0.50;0.50;;;;;13.81;83.14;97223.47;5114515;28;8866;-57
2023/10/21 05:18:07;;;;;;;;;0.00;0.00;;;;;13.82;83.42;97244.63;5114675;28;8831;-58
2023/10/21 05:20:34;;;;;;;;;1.50;1.00;;;;;13.83;83.92;97251.63;5114362;28;8816;-57
2023/10/21 05:23:02;;;;;;;;;1.00;1.00;;;;;13.85;83.00;97262.13;5113708;28;8874;-58
2023/10/21 05:25:30;;;;;;;;;0.00;0.00;;;;;13.85;83.07;97265.66;5113994;28;8835;-59
2023/10/21 05:27:58;;;;;;;;;0.25;0.00;;;;;13.88;83.20;97277.78;5114402;28;8819;-59
2023/10/21 05:30:25;;;;;;;;;0.00;0.00;;;;;13.89;83.03;97279.44;5114294;28;8832;-57
2023/10/21 05:32:53;;;;;;;;;1.00;1.00;;;;;13.92;83.47;97276.31;5114359;28;8828;-59
2023/10/21 05:35:21;;;;;;;;;0.00;0.00;;;;;13.92;83.02;97285.19;5113826;28;8828;-59
2023/10/21 05:37:49;;;;;;;;;1.00;1.00;;;;;13.93;82.79;97283.31;5114001;28;8820;-58
2023/10/21 05:40:17;;;;;;;;;0.50;0.50;;;;;13.92;82.81;97295.06;5113676;28;8840;-59
2023/10/21 05:42:45;;;;;;;;;2.00;1.00;;;;;13.92;82.94;97297.72;5113676;28;8819;-57
2023/10/21 05:45:12;;;;;;;;;2.00;2.00;;;;;13.92;83.21;97298.56;5114023;28;8914;-57
2023/10/21 05:47:40;;;;;;;;;2.50;1.50;;;;;13.91;83.05;97307.63;5113741;28;8950;-56
2023/10/21 05:50:10;;;;;;;;;2.50;1.00;;;;;13.92;83.57;97308.44;5117387;28;8838;-58
2023/10/21 05:52:38;;;;;;;;;2.50;2.50;;;;;13.92;83.73;97308.44;5117572;28;8870;-58
2023/10/21 05:55:05;;;;;;;;;1.50;1.50;;;;;13.93;83.86;97320.78;5117634;28;8834;-58
2023/10/21 05:57:33;;;;;;;;;0.00;0.00;;;;;13.94;83.59;97322.41;5117324;28;8824;-58
2023/10/21 06:00:01;;;;;;;;;0.75;0.75;;;;;13.95;83.64;97332.09;5116650;28;9856;-56
2023/10/21 06:02:29;;;;;;;;;1.00;1.00;;;;;13.96;83.53;97328.41;5116664;28;8867;-60
2023/10/21 06:04:56;;;;;;;;;1.50;1.50;;;;;13.96;83.50;97337.25;5116637;28;8820;-57
2023/10/21 06:07:24;;;;;;;;;1.00;1.00;;;;;13.98;84.00;97342.41;5117549;28;8847;-59
2023/10/21 06:09:53;;;;;;;;;2.00;2.00;;;;;13.98;83.53;97340.53;5116301;28;8820;-58
2023/10/21 06:12:21;;;;;;;;;2.00;2.00;;;;;13.96;83.42;97344.47;5116789;28;8958;-56
2023/10/21 06:14:50;;;;;;;;;3.00;1.50;;;;;13.94;83.42;97350.00;5117075;28;9555;-57
2023/10/21 06:17:18;;;;;;;;;1.00;1.00;;;;;13.93;83.85;97366.25;5116956;28;8862;-59
2023/10/21 06:19:45;;;;;;;;;3.00;3.00;;;;;13.88;83.87;97377.59;5117237;28;8840;-59
2023/10/21 06:22:13;;;;;;;;;3.00;3.00;;;;;13.84;84.26;97375.53;5117017;28;8832;-56
2023/10/21 06:24:41;;;;;;;;;1.00;1.00;;;;;13.82;83.70;97388.28;5117082;28;8842;-57
2023/10/21 06:27:09;;;;;;;;;0.50;0.50;;;;;13.80;83.89;97387.66;5117063;28;9841;-59
2023/10/21 06:29:36;;;;;;;;;1.00;1.00;;;;;13.77;83.98;97401.44;5117022;28;8816;-56
2023/10/21 06:32:06;;;;;;;;;2.75;2.00;;;;;13.73;84.46;97403.69;5116475;28;8843;-56
2023/10/21 06:34:34;;;;;;;;;1.00;1.00;;;;;13.71;83.91;97407.59;5116556;28;8855;-58
2023/10/21 06:37:02;;;;;;;;;1.00;1.00;;;;;13.71;84.47;97415.63;5116389;28;8832;-58
2023/10/21 06:39:31;;;;;;;;;1.00;1.00;;;;;13.69;84.25;97415.00;5116266;28;8861;-59
2023/10/21 06:41:59;;;;;;;;;1.50;1.50;;;;;13.67;84.26;97417.06;5116348;28;8827;-57
2023/10/21 06:44:26;;;;;;;;;1.00;1.00;;;;;13.66;84.02;97424.25;5116313;28;8816;-59
2023/10/21 06:46:55;;;;;;;;;1.00;1.00;;;;;13.67;84.79;97417.88;5115955;28;8843;-58
2023/10/21 06:49:23;;;;;;;;;0.80;0.00;;;;;13.70;84.55;97428.19;5116489;28;8839;-58
2023/10/21 06:51:50;;;;;;;;;0.00;0.00;;;;;13.73;84.21;97435.81;5116321;28;8836;-58
2023/10/21 06:54:18;;;;;;;;;0.00;0.00;;;;;13.77;84.34;97446.91;5116432;28;8812;-58
2023/10/21 06:56:46;;;;;;;;;0.75;0.00;;;;;13.83;84.74;97454.13;5116331;28;8816;-58
2023/10/21 06:59:14;;;;;;;;;1.00;1.00;;;;;13.87;84.49;97452.69;5114937;28;8832;-59
2023/10/21 07:01:42;;;;;;;;;0.00;0.00;;;;;13.93;84.59;97454.56;5115858;28;8820;-56
2023/10/21 07:04:10;;;;;;;;;0.00;0.00;;;;;13.98;84.15;97457.44;5115861;28;8824;-57
2023/10/21 07:06:39;;;;;;;;;0.00;0.00;;;;;14.08;84.49;97468.56;5115539;28;8904;-57
2023/10/21 07:09:07;;;;;;;;;0.00;0.00;;;;;14.19;83.73;97476.03;5115249;28;8831;-58
2023/10/21 07:11:35;;;;;;;;;1.00;1.00;;;;;14.29;83.63;97477.28;5115402;28;8840;-58
2023/10/21 07:14:03;;;;;;;;;0.00;0.00;;;;;14.38;83.81;97480.56;5115113;28;8824;-59
2023/10/21 07:16:31;;;;;;;;;0.00;0.00;;;;;14.43;83.21;97483.47;5114517;28;8820;-58
2023/10/21 07:18:59;;;;;;;;;0.00;0.00;;;;;14.47;83.42;97487.34;5114647;28;8839;-59
2023/10/21 07:21:26;;;;;;;;;0.00;0.00;;;;;14.51;82.87;97499.31;5113803;28;8832;-58
2023/10/21 07:23:54;;;;;;;;;0.00;0.00;;;;;14.53;83.49;97507.97;5113703;28;8831;-59
2023/10/21 07:26:22;;;;;;;;;0.00;0.00;;;;;14.58;83.37;97508.19;5114009;28;8855;-59
2023/10/21 07:28:50;;;;;;;;;0.00;0.00;;;;;14.63;83.39;97509.19;5113614;28;8958;-57
2023/10/21 07:31:18;;;;;;;;;0.00;0.00;;;;;14.72;83.26;97523.22;5113657;28;8827;-57
2023/10/21 07:33:46;;;;;;;;;0.00;0.00;;;;;14.83;82.86;97527.94;5112684;28;8852;-58
2023/10/21 07:36:14;;;;;;;;;0.00;0.00;;;;;14.92;82.49;97526.69;5113614;28;8816;-59
2023/10/21 07:38:42;;;;;;;;;0.00;0.00;;;;;15.00;82.42;97531.81;5113789;28;8854;-56
2023/10/21 07:41:10;;;;;;;;;0.00;0.00;;;;;15.04;81.93;97533.06;5114544;28;8858;-57
2023/10/21 07:43:37;;;;;;;;;0.00;0.00;;;;;15.10;81.99;97541.09;5113312;28;8851;-59
2023/10/21 07:46:05;;;;;;;;;0.00;0.00;;;;;15.19;81.95;97539.03;5113752;28;8851;-56
2023/10/21 07:48:33;;;;;;;;;0.00;0.00;;;;;15.30;81.80;97533.00;5113366;28;8846;-56
2023/10/21 07:51:01;;;;;;;;;0.00;0.00;;;;;15.39;81.25;97547.88;5112333;28;8827;-56
2023/10/21 07:53:28;;;;;;;;;0.00;0.00;;;;;15.48;81.62;97542.06;5111434;28;8832;-57
2023/10/21 07:55:56;;;;;;;;;0.00;0.00;;;;;15.56;80.80;97552.56;5112200;28;8928;-59
2023/10/21 07:58:25;;;;;;;;;0.00;0.00;;;;;15.58;81.28;97552.34;5112428;28;9040;-59
2023/10/21 08:00:53;;;;;;;;;0.00;0.00;;;;;15.53;81.33;97557.50;5112818;28;9904;-57
2023/10/21 08:03:20;;;;;;;;;0.00;0.00;;;;;15.48;81.71;97562.72;5112102;28;8985;-57
2023/10/21 08:05:48;;;;;;;;;0.00;0.00;;;;;15.46;81.63;97572.84;5112904;28;8838;-57
2023/10/21 08:08:16;;;;;;;;;0.00;0.00;;;;;15.48;81.23;97582.28;5113783;28;8832;-60
2023/10/21 08:10:44;;;;;;;;;0.00;0.00;;;;;15.48;81.54;97584.16;5112996;28;8844;-59
2023/10/21 08:13:11;;;;;;;;;0.00;0.00;;;;;15.41;81.55;97596.78;5114582;28;8819;-58
2023/10/21 08:15:39;;;;;;;;;0.00;0.00;;;;;15.31;81.98;97597.19;5113866;28;8831;-58
2023/10/21 08:18:07;;;;;;;;;0.00;0.00;;;;;15.23;81.96;97607.25;5114675;28;9498;-58
2023/10/21 08:20:35;;;;;;;;;0.00;0.00;;;;;15.17;82.06;97622.34;5114144;28;8836;-57
2023/10/21 08:23:03;;;;;;;;;0.00;0.00;;;;;15.17;81.96;97610.81;5114418;28;8836;-58
2023/10/21 08:25:31;;;;;;;;;0.00;0.00;;;;;15.15;81.73;97619.03;5114841;28;8832;-60
2023/10/21 08:27:58;;;;;;;;;0.00;0.00;;;;;15.16;81.65;97630.59;5114067;28;8828;-58
2023/10/21 08:30:26;;;;;;;;;0.00;0.00;;;;;15.19;82.09;97625.66;5113404;28;8970;-58
2023/10/21 08:32:54;;;;;;;;;0.00;0.00;;;;;15.23;81.63;97636.75;5113442;28;8828;-58
2023/10/21 08:35:23;;;;;;;;;0.00;0.00;;;;;15.27;81.40;97641.53;5113770;28;8850;-59
2023/10/21 08:37:51;;;;;;;;;0.00;0.00;;;;;15.32;80.80;97657.03;5112881;28;8878;-59
2023/10/21 08:40:18;;;;;;;;;0.00;0.00;;;;;15.30;80.91;97656.34;5112768;28;8924;-57
2023/10/21 08:42:46;;;;;;;;;0.00;0.00;;;;;15.30;81.13;97664.41;5113364;28;8834;-58
2023/10/21 08:45:28;;;;;;;;;0.00;0.00;;;;;15.23;80.59;97663.56;5112992;28;8824;-59
2023/10/21 08:47:56;;;;;;;;;0.00;0.00;;;;;15.18;81.00;97671.44;5113038;28;8827;-59
2023/10/21 08:50:25;;;;;;;;;0.00;0.00;;;;;15.13;81.37;97679.25;5113635;28;8959;-59
2023/10/21 08:52:54;;;;;;;;;0.00;0.00;;;;;15.06;81.39;97673.91;5113054;28;8849;-57
2023/10/21 08:55:22;;;;;;;;;0.00;0.00;;;;;15.03;81.56;97682.34;5112761;28;8828;-57
2023/10/21 08:57:49;;;;;;;;;0.00;0.00;;;;;15.04;81.55;97678.66;5113153;28;8831;-60
2023/10/21 09:00:18;;;;;;;;;0.00;0.00;;;;;15.16;81.16;97694.94;5112991;28;8846;-59
2023/10/21 09:02:46;;;;;;;;;0.40;0.40;;;;;15.29;80.92;97686.88;5111951;28;8844;-57
2023/10/21 09:05:14;;;;;;;;;0.00;0.00;;;;;15.36;80.84;97691.28;5111884;28;8920;-59
2023/10/21 09:07:42;;;;;;;;;0.00;0.00;;;;;15.42;80.18;97698.50;5112696;28;9550;-57
2023/10/21 09:10:09;;;;;;;;;0.00;0.00;;;;;15.46;80.26;97705.06;5112156;28;8832;-58
2023/10/21 09:12:38;;;;;;;;;0.00;0.00;;;;;15.51;79.91;97712.50;5112339;28;8978;-57
2023/10/21 09:15:05;;;;;;;;;0.00;0.00;;;;;15.57;79.55;97714.34;5112234;28;8828;-58
2023/10/21 09:17:34;;;;;;;;;0.00;0.00;;;;;15.63;79.13;97729.63;5112563;28;8963;-57
2023/10/21 09:20:02;;;;;;;;;0.00;0.00;;;;;15.66;79.43;97732.72;5113076;28;8828;-59
2023/10/21 09:22:30;;;;;;;;;0.00;0.00;;;;;15.70;78.95;97731.25;5114360;28;8820;-58
2023/10/21 09:24:58;;;;;;;;;1.00;1.00;;;;;15.80;78.73;97758.53;5116921;28;8836;-58
2023/10/21 09:27:27;;;;;;;;;0.00;0.00;;;;;15.87;78.75;97740.56;5115834;28;8847;-57
2023/10/21 09:29:55;;;;;;;;;0.00;0.00;;;;;15.97;78.36;97748.16;5116584;28;8824;-56
2023/10/21 09:32:24;;;;;;;;;0.00;0.00;;;;;16.01;78.33;97744.03;5116518;28;8842;-57
2023/10/21 09:34:52;;;;;;;;;0.00;0.00;;;;;16.03;77.84;97758.06;5117290;28;8863;-56
2023/10/21 09:37:20;;;;;;;;;0.00;0.00;;;;;16.05;78.07;97755.97;5116967;28;8835;-57
2023/10/21 09:39:48;;;;;;;;;0.00;0.00;;;;;16.11;77.46;97760.53;5116431;28;8820;-60
2023/10/21 09:42:16;;;;;;;;;0.00;0.00;;;;;16.17;77.47;97754.31;5116615;28;8832;-57
2023/10/21 09:44:43;;;;;;;;;0.00;0.00;;;;;16.18;77.75;97762.16;5116404;28;8855;-60
2023/10/21 09:47:12;;;;;;;;;0.00;0.00;;;;;16.27;76.89;97760.91;5115984;28;8843;-58
2023/10/21 09:49:40;;;;;;;;;0.00;0.00;;;;;16.41;76.97;97774.09;5116359;28;8966;-57
2023/10/21 09:52:09;;;;;;;;;0.00;0.00;;;;;16.56;76.37;97771.97;5115639;28;8836;-59
2023/10/21 09:54:37;;;;;;;;;0.00;0.00;;;;;16.70;76.00;97773.59;5116033;28;8820;-57
2023/10/21 09:57:06;;;;;;;;;0.00;0.00;;;;;16.80;75.32;97786.56;5116149;28;8840;-59
2023/10/21 09:59:37;;;;;;;;;0.00;0.00;;;;;16.82;75.27;97781.81;5115936;28;8895;-58
2023/10/21 10:02:06;;;;;;;;;0.00;0.00;;;;;16.87;74.67;97793.56;5114743;28;8907;-57
2023/10/21 10:04:35;;;;;;;;;0.00;0.00;;;;;17.04;74.04;97775.91;5115153;28;8839;-57
2023/10/21 10:07:07;;;;;;;;;0.00;0.00;;;;;17.43;72.76;97769.47;5115819;28;8860;-58
2023/10/21 10:09:44;;;;;;;;;0.00;0.00;;;;;17.85;72.03;97771.41;5114927;28;8843;-57
2023/10/21 10:12:12;;;;;;;;;0.00;0.00;;;;;18.04;70.80;97773.06;5115106;28;8824;-60
2023/10/21 10:14:41;;;;;;;;;0.00;0.00;;;;;18.09;71.42;97771.38;5114422;28;8916;-57
2023/10/21 10:17:08;;;;;;;;;0.00;0.00;;;;;17.97;70.99;97770.47;5114974;28;8966;-58
2023/10/21 10:19:37;;;;;;;;;0.00;0.00;;;;;17.83;71.12;97778.88;5114906;28;8858;-57
2023/10/21 10:22:06;;;;;;;;;0.00;0.00;;;;;17.72;70.57;97777.72;5114765;28;8850;-57
2023/10/21 10:24:34;;;;;;;;;0.00;0.00;;;;;17.63;71.09;97781.72;5113980;28;8928;-55
2023/10/21 10:27:02;;;;;;;;;0.00;0.00;;;;;17.58;71.21;97784.25;5114336;28;8920;-57
2023/10/21 10:29:30;;;;;;;;;0.00;0.00;;;;;17.56;70.74;97791.75;5114457;28;8823;-57
2023/10/21 10:31:58;;;;;;;;;0.00;0.00;;;;;17.48;70.86;97793.88;5115250;28;9555;-57
2023/10/21 10:34:26;;;;;;;;;0.00;0.00;;;;;17.39;71.02;97803.25;5114517;28;8831;-57
2023/10/21 10:36:55;;;;;;;;;0.00;0.00;;;;;17.35;70.86;97800.13;5114853;28;8922;-58
2023/10/21 10:39:23;;;;;;;;;0.00;0.00;;;;;17.35;71.08;97815.44;5114151;28;8852;-58
2023/10/21 10:41:52;;;;;;;;;0.00;0.00;;;;;17.41;70.54;97810.06;5114493;28;8852;-58
2023/10/21 10:44:20;;;;;;;;;0.00;0.00;;;;;17.55;70.17;97814.28;5115339;28;8839;-57
2023/10/21 10:46:49;;;;;;;;;0.00;0.00;;;;;17.63;69.90;97829.38;5115223;28;8831;-58
2023/10/21 10:49:17;;;;;;;;;0.00;0.00;;;;;17.66;69.36;97815.47;5115575;28;8893;-58
2023/10/21 10:51:45;;;;;;;;;0.00;0.00;;;;;17.55;69.71;97835.81;5115457;28;8844;-61
2023/10/21 10:54:15;;;;;;;;;0.00;0.00;;;;;17.31;69.98;97847.34;5115483;28;8874;-58
2023/10/21 10:56:44;;;;;;;;;0.00;0.00;;;;;17.15;69.63;97844.34;5115098;28;8823;-60
2023/10/21 10:59:12;;;;;;;;;0.00;0.00;;;;;17.09;69.16;97848.69;5114549;28;8820;-60
2023/10/21 11:01:41;;;;;;;;;0.00;0.00;;;;;17.25;67.87;97847.38;5113377;28;8827;-57
2023/10/21 11:04:09;;;;;;;;;0.00;0.00;;;;;17.57;67.29;97832.94;5113105;28;8831;-58
2023/10/21 11:06:39;;;;;;;;;0.00;0.00;;;;;17.73;67.07;97835.91;5113904;28;8841;-57
2023/10/21 11:09:16;;;;;;;;;0.00;0.00;;;;;17.88;66.28;97831.03;5113743;28;8908;-57
2023/10/21 11:11:45;;;;;;;;;0.00;0.00;;;;;18.06;65.94;97830.28;5114023;28;8851;-59
2023/10/21 11:14:27;;;;;;;;;0.00;0.00;;;;;18.11;65.59;97838.50;5113638;28;8904;-58
2023/10/21 11:16:55;;;;;;;;;0.00;0.00;;;;;18.11;65.44;97833.94;5114589;28;8831;-58
2023/10/21 11:19:22;;;;;;;;;0.00;0.00;;;;;18.03;65.73;97838.78;5115195;28;8860;-58
2023/10/21 11:21:51;;;;;;;;;0.00;0.00;;;;;17.68;65.72;97870.75;5114570;28;8840;-58
2023/10/21 11:24:22;;;;;;;;;0.00;0.00;;;;;17.35;66.80;97870.09;5114563;28;8815;-60
2023/10/21 11:26:51;;;;;;;;;0.00;0.00;;;;;17.11;67.51;97873.53;5114501;28;8843;-58
2023/10/21 11:29:18;;;;;;;;;0.00;0.00;;;;;16.91;68.20;97882.69;5114429;28;8828;-58
2023/10/21 11:31:46;;;;;;;;;0.00;0.00;;;;;16.77;68.71;97879.22;5114110;28;8856;-58
2023/10/21 11:34:15;;;;;;;;;0.00;0.00;;;;;16.66;68.64;97876.34;5114373;28;8827;-58
2023/10/21 11:36:44;;;;;;;;;0.00;0.00;;;;;16.55;69.06;97877.81;5114349;28;8836;-58
2023/10/21 11:39:14;;;;;;;;;0.00;0.00;;;;;16.45;69.28;97888.19;5114515;28;8835;-60
2023/10/21 11:41:42;;;;;;;;;0.00;0.00;;;;;16.37;69.14;97892.94;5114465;28;8909;-59
2023/10/21 11:44:10;;;;;;;;;0.00;0.00;;;;;16.33;69.76;97895.19;5114071;28;8852;-59
2023/10/21 11:46:38;;;;;;;;;0.00;0.00;;;;;16.33;69.17;97905.94;5114464;28;8856;-58